Sawyer, North Dakota
Current Conditions -  °F | °C
As of 2:54 PM on Thursday 27 Nov 2014 (Local Time) from KMOT Reporting Station
Light Snow Light Snow  
Wind Chill: -2°   Ceiling: 2200
Heat Index: 13°   Visibility: 1mi
Dew Point:   Wind: 14mph
Humidity: 81%   Direction: 120°ESE
Pressure: 30.04"   Gusts: NA
Location:  48.09°N, 101.05°W
Report Text: KMOT 272054Z 12012KT 1SM -SN OVC022 M11/M13 A3004 RMK AO2 SLP219 P0000 60000 T11061133 58032
Loading
Personal Weather Stations






























Interactive Weather Map New forecast layout! Learn more

10-Day Weather Forecast

Advertisements
Track Severe Weather on mobile